Time;durP1;ratioP1;P1;durP2;ratioP2;P2;SDS_P1;SDS_P2;PMS_P1;PMS_P2;Temp;Humidity;BMP_temperature;BMP_pressure;BME280_temperature;BME280_humidity;BME280_pressure;Samples;Min_cycle;Max_cycle;Signal;HPM_P1;HPM_P2
2021/12/24 03:31:12;;;;;;;;;;;;;;;8.92;60.76;99469.28;4841324;23;100091;-73
2021/12/24 03:33:39;;;;;;;27.52;16.15;;;;;;;8.86;60.49;99466.91;4944672;28;99332;-72
2021/12/24 03:36:07;;;;;;;29.23;16.35;;;;;;;8.81;60.82;99471.56;4940990;28;96701;-73
2021/12/24 03:38:34;;;;;;;27.95;16.08;;;;;;;8.85;60.84;99454.69;4945376;28;96732;-73
2021/12/24 03:41:01;;;;;;;28.15;17.00;;;;;;;8.92;61.05;99458.75;4934225;28;98205;-73
2021/12/24 03:43:28;;;;;;;29.35;16.77;;;;;;;8.29;63.30;99455.56;4915842;28;99126;-73
2021/12/24 03:46:01;;;;;;;32.58;17.85;;;;;;;8.52;62.27;99456.31;4922885;28;96631;-73
2021/12/24 03:48:43;;;;;;;34.58;17.88;;;;;;;8.76;61.59;99465.66;4912759;28;96786;-73
2021/12/24 03:51:26;;;;;;;33.22;18.33;;;;;;;8.94;61.20;99448.97;4923526;28;99219;-73
2021/12/24 03:56:38;;;;;;;29.50;16.95;;;;;;;8.87;61.58;99454.59;4909061;28;98116;-74
2021/12/24 03:59:06;;;;;;;32.10;17.25;;;;;;;8.67;62.43;99445.88;4915994;28;96813;-72
2021/12/24 04:01:32;;;;;;;27.63;16.17;;;;;;;8.66;62.61;99449.44;4918957;28;98205;-73
2021/12/24 04:04:00;;;;;;;28.33;16.00;;;;;;;8.59;63.10;99444.56;4929487;28;100410;-72
2021/12/24 04:06:27;;;;;;;31.30;17.23;;;;;;;8.79;62.54;99432.13;4920571;28;97013;-72
2021/12/24 04:08:54;;;;;;;26.95;16.38;;;;;;;9.00;61.82;99422.31;4929455;28;96799;-72
2021/12/24 04:11:20;;;;;;;27.85;15.13;;;;;;;9.11;61.57;99425.28;4915317;28;98214;-72
2021/12/24 04:13:47;;;;;;;28.50;15.90;;;;;;;9.06;61.12;99422.00;4911107;28;99693;-73
2021/12/24 04:16:13;;;;;;;25.70;15.45;;;;;;;9.09;61.39;99416.59;4921194;28;96759;-73
2021/12/24 04:18:47;;;;;;;27.45;15.68;;;;;;;9.17;61.47;99418.84;4920835;28;96723;-73
2021/12/24 04:26:43;;;;;;;26.23;15.55;;;;;;;9.20;61.04;99419.53;4910752;28;96672;-73
2021/12/24 04:29:10;;;;;;;28.23;14.98;;;;;;;9.00;61.18;99422.31;4923387;28;97105;-74
2021/12/24 04:31:42;;;;;;;25.20;14.82;;;;;;;9.09;62.27;99413.94;4920767;28;99391;-73
2021/12/24 04:34:10;;;;;;;28.45;15.32;;;;;;;9.16;61.88;99420.63;4919115;28;99411;-73
2021/12/24 04:36:54;;;;;;;25.27;15.00;;;;;;;9.11;61.69;99419.16;4922352;28;96772;-72
2021/12/24 04:39:49;;;;;;;26.95;15.15;;;;;;;9.09;62.14;99406.03;4928647;28;96746;-72
2021/12/24 05:01:29;;;;;;;24.38;13.90;;;;;;;9.10;62.82;99399.84;4932203;28;96596;-72
2021/12/24 05:03:57;;;;;;;24.35;13.25;;;;;;;9.25;61.90;99398.22;4929985;28;99543;-72
2021/12/24 05:06:32;;;;;;;22.77;13.00;;;;;;;9.39;62.19;99392.22;4916404;28;99178;-72
2021/12/24 05:09:07;;;;;;;21.30;12.63;;;;;;;9.08;63.15;99388.53;4915911;28;96713;-72
2021/12/24 05:11:33;;;;;;;19.75;11.35;;;;;;;9.24;62.64;99382.47;4918840;28;96772;-73
2021/12/24 05:14:00;;;;;;;19.02;11.32;;;;;;;9.28;62.59;99389.28;4919583;28;99474;-72
2021/12/24 05:16:37;;;;;;;19.60;11.45;;;;;;;9.49;62.55;99390.81;4916562;28;99441;-72
2021/12/24 05:21:32;;;;;;;16.85;10.38;;;;;;;9.35;62.56;99391.53;4917387;28;97055;-72
2021/12/24 05:21:54;;;;;;;17.80;10.23;;;;;;;9.39;62.25;99382.50;4929999;28;96859;-72
2021/12/24 05:24:26;;;;;;;16.67;9.90;;;;;;;9.39;62.18;99390.44;4921390;28;99480;-73
2021/12/24 05:26:55;;;;;;;17.40;10.10;;;;;;;9.53;62.45;99390.56;4926943;28;97955;-72
2021/12/24 05:29:22;;;;;;;16.70;9.88;;;;;;;9.46;61.83;99388.31;4938617;28;97232;-72
2021/12/24 05:31:49;;;;;;;17.92;9.35;;;;;;;9.46;62.40;99383.91;4936129;28;96697;-73
2021/12/24 05:34:18;;;;;;;14.63;9.32;;;;;;;9.28;63.63;99389.28;4945162;28;97944;-73
2021/12/24 05:36:45;;;;;;;13.70;8.20;;;;;;;9.24;64.11;99377.22;4938135;28;97884;-73
2021/12/24 05:39:11;;;;;;;13.80;8.30;;;;;;;9.35;63.72;99388.03;4933631;28;96584;-73
2021/12/24 05:41:40;;;;;;;13.50;8.15;;;;;;;9.58;63.32;99379.78;4932947;28;96724;-73
2021/12/24 05:44:09;;;;;;;12.32;7.65;;;;;;;9.27;63.54;99383.16;4921767;28;99321;-73
2021/12/24 05:46:36;;;;;;;9.82;6.70;;;;;;;9.36;64.43;99387.97;4930909;28;99401;-72
2021/12/24 05:49:02;;;;;;;8.38;6.47;;;;;;;9.50;63.55;99382.84;4909627;28;96569;-73
2021/12/24 05:51:28;;;;;;;11.05;6.05;;;;;;;9.62;63.68;99393.66;4907400;28;96744;-73
2021/12/24 05:53:55;;;;;;;8.32;5.57;;;;;;;9.47;64.48;99382.13;4926499;28;99718;-73
2021/12/24 05:56:21;;;;;;;7.88;5.60;;;;;;;9.53;64.21;99373.88;4920098;28;99417;-74
2021/12/24 05:58:49;;;;;;;7.95;4.90;;;;;;;9.82;63.43;99375.84;4919103;28;96670;-72
2021/12/24 06:01:15;;;;;;;6.85;4.65;;;;;;;9.57;62.70;99359.63;4925571;28;97920;-73
2021/12/24 06:03:42;;;;;;;8.02;4.30;;;;;;;9.71;63.84;99351.84;4928002;28;98814;-72
2021/12/24 06:06:08;;;;;;;6.82;4.15;;;;;;;9.59;63.44;99360.38;4914900;28;99010;-72
2021/12/24 06:08:34;;;;;;;5.72;4.20;;;;;;;9.55;64.53;99362.34;4923601;28;96747;-72
2021/12/24 06:11:01;;;;;;;5.72;4.03;;;;;;;9.51;64.56;99360.81;4923193;28;96745;-72
2021/12/24 06:13:29;;;;;;;5.32;4.07;;;;;;;9.34;65.32;99363.47;4921165;28;99466;-73
2021/12/24 06:15:57;;;;;;;5.22;3.72;;;;;;;9.62;64.61;99362.88;4929270;28;99243;-72
2021/12/24 06:18:27;;;;;;;4.97;3.97;;;;;;;9.64;64.09;99358.38;4922508;28;96658;-74
2021/12/24 06:20:55;;;;;;;6.43;3.90;;;;;;;9.62;64.04;99354.09;4925402;28;97031;-72
2021/12/24 06:23:23;;;;;;;8.00;3.88;;;;;;;9.76;64.27;99352.44;4928471;28;99290;-72
2021/12/24 06:25:52;;;;;;;3.80;3.10;;;;;;;9.73;63.77;99359.63;4923670;28;99227;-73
2021/12/24 06:28:19;;;;;;;5.75;4.07;;;;;;;9.53;64.48;99363.34;4931477;28;96791;-74
2021/12/24 06:30:46;;;;;;;4.40;3.30;;;;;;;9.50;64.76;99360.88;4917656;28;96849;-73
2021/12/24 06:33:13;;;;;;;4.43;3.78;;;;;;;9.68;64.83;99357.25;4928314;28;99429;-74
2021/12/24 06:35:40;;;;;;;3.72;2.95;;;;;;;9.95;63.78;99362.81;4917877;28;99193;-73
2021/12/24 06:38:07;;;;;;;4.20;3.33;;;;;;;9.92;63.91;99355.91;4909497;28;96735;-73
2021/12/24 06:40:34;;;;;;;3.85;3.20;;;;;;;9.96;63.85;99356.63;4924889;28;96788;-74
2021/12/24 06:43:01;;;;;;;3.50;3.03;;;;;;;9.83;63.70;99355.59;4924377;28;98175;-73
2021/12/24 06:45:27;;;;;;;5.05;3.42;;;;;;;9.94;64.04;99363.75;4909278;28;99386;-73
2021/12/24 06:48:00;;;;;;;3.17;2.88;;;;;;;9.78;63.57;99362.91;4915614;28;96696;-72
2021/12/24 06:50:27;;;;;;;4.82;2.90;;;;;;;9.95;64.04;99366.31;4906239;28;96825;-72
2021/12/24 06:52:54;;;;;;;4.90;3.22;;;;;;;10.17;63.32;99360.75;4920795;28;98963;-73
2021/12/24 06:55:21;;;;;;;4.70;3.05;;;;;;;10.03;63.90;99365.91;4922803;28;99450;-73
2021/12/24 06:57:48;;;;;;;2.80;2.60;;;;;;;9.85;64.25;99370.38;4937617;28;97045;-73
2021/12/24 07:00:18;;;;;;;2.85;2.63;;;;;;;10.07;64.00;99366.56;4919538;28;96872;-73
2021/12/24 07:02:45;;;;;;;3.13;2.72;;;;;;;9.98;63.98;99360.00;4919605;28;99697;-75
2021/12/24 07:05:11;;;;;;;2.60;2.40;;;;;;;9.95;63.49;99360.19;4908066;28;99490;-73
2021/12/24 07:07:39;;;;;;;3.25;2.30;;;;;;;9.97;64.12;99361.81;4924939;28;96718;-73
2021/12/24 07:10:06;;;;;;;2.35;2.22;;;;;;;9.91;64.03;99371.84;4915197;28;96831;-73
2021/12/24 07:12:33;;;;;;;1.80;1.70;;;;;;;10.12;63.89;99367.16;4928685;28;101387;-73
2021/12/24 07:14:59;;;;;;;2.42;2.22;;;;;;;10.26;63.92;99367.28;4931952;28;99103;-73
2021/12/24 07:17:27;;;;;;;2.53;2.33;;;;;;;10.22;62.59;99374.53;4920761;28;96697;-72
2021/12/24 07:19:53;;;;;;;8.50;2.70;;;;;;;10.10;63.28;99374.34;4926772;28;96821;-73
2021/12/24 07:22:20;;;;;;;2.00;1.90;;;;;;;10.20;63.71;99381.69;4927289;28;98988;-73
2021/12/24 07:24:47;;;;;;;2.30;2.10;;;;;;;10.40;63.12;99367.38;4907971;28;98870;-73
2021/12/24 07:27:14;;;;;;;2.47;2.08;;;;;;;10.01;64.73;99365.13;4928131;28;96738;-73
2021/12/24 07:29:40;;;;;;;1.98;1.80;;;;;;;10.21;63.97;99357.00;4917104;28;96796;-73
2021/12/24 07:32:07;;;;;;;2.20;1.92;;;;;;;10.37;63.28;99372.84;4914967;28;99190;-73
2021/12/24 07:34:34;;;;;;;1.85;1.75;;;;;;;9.91;64.79;99371.84;4924016;28;99192;-72
2021/12/24 07:37:01;;;;;;;2.08;1.88;;;;;;;10.01;64.34;99367.75;4921492;28;96808;-73
2021/12/24 07:39:27;;;;;;;2.25;2.05;;;;;;;10.29;64.36;99375.06;4916316;28;96798;-73
2021/12/24 07:41:55;;;;;;;1.70;1.60;;;;;;;10.01;63.78;99380.97;4925440;28;98268;-73
2021/12/24 07:44:21;;;;;;;1.95;1.80;;;;;;;10.18;64.25;99373.00;4921038;28;99018;-75
2021/12/24 07:46:51;;;;;;;2.85;2.05;;;;;;;10.30;63.78;99374.13;4921511;28;96690;-72
2021/12/24 07:49:30;;;;;;;2.45;2.05;;;;;;;10.06;64.42;99368.34;4920833;28;97164;-73
2021/12/24 07:52:03;;;;;;;1.85;1.45;;;;;;;10.13;64.76;99374.16;4909955;28;97781;-72
2021/12/24 07:54:31;;;;;;;2.28;1.80;;;;;;;9.92;65.94;99368.25;4920221;28;99214;-73
2021/12/24 07:57:01;;;;;;;2.20;2.00;;;;;;;10.04;64.78;99358.84;4899967;28;96787;-73
2021/12/24 07:59:28;;;;;;;1.98;1.85;;;;;;;10.29;64.68;99361.84;4918366;28;97209;-73
2021/12/24 08:01:55;;;;;;;2.63;2.10;;;;;;;10.19;64.70;99373.84;4923162;28;99912;-72
2021/12/24 08:04:22;;;;;;;2.08;1.88;;;;;;;10.35;64.14;99374.69;4921137;28;98948;-72
2021/12/24 08:06:49;;;;;;;5.05;1.80;;;;;;;10.30;64.81;99374.97;4929039;28;96861;-75
2021/12/24 08:09:15;;;;;;;1.92;1.73;;;;;;;10.60;63.69;99367.09;4923435;28;96632;-73
2021/12/24 08:11:42;;;;;;;2.78;1.80;;;;;;;9.97;65.55;99375.00;4925007;28;99230;-73
2021/12/24 08:14:09;;;;;;;1.80;1.70;;;;;;;10.44;64.84;99370.66;4909284;28;99009;-72
2021/12/24 08:16:36;;;;;;;1.98;1.85;;;;;;;10.24;64.70;99371.81;4916617;28;96667;-73
2021/12/24 08:19:04;;;;;;;2.15;1.95;;;;;;;10.44;65.09;99363.59;4915288;28;97251;-73
2021/12/24 08:21:30;;;;;;;1.85;1.75;;;;;;;10.05;65.47;99355.25;4928574;28;98402;-72
2021/12/24 08:23:57;;;;;;;1.80;1.70;;;;;;;10.21;65.54;99366.69;4916372;28;99108;-73
2021/12/24 08:26:23;;;;;;;1.80;1.70;;;;;;;10.11;65.81;99350.47;4921495;28;97168;-73
2021/12/24 08:28:50;;;;;;;2.40;2.20;;;;;;;10.37;65.24;99360.47;4928063;28;96810;-72
2021/12/24 08:31:18;;;;;;;3.55;1.83;;;;;;;10.42;64.52;99356.72;4916615;28;99076;-73
2021/12/24 08:33:45;;;;;;;1.73;1.63;;;;;;;10.06;65.21;99355.16;4909899;28;99301;-75
2021/12/24 08:36:11;;;;;;;1.77;1.63;;;;;;;9.85;65.77;99359.81;4915033;28;96658;-73
2021/12/24 08:38:39;;;;;;;1.70;1.60;;;;;;;10.20;65.58;99354.44;4924166;28;96748;-73
2021/12/24 08:41:06;;;;;;;1.77;1.67;;;;;;;10.23;65.61;99351.63;4928915;28;98958;-73
2021/12/24 08:43:33;;;;;;;2.70;1.75;;;;;;;10.23;65.54;99349.84;4919638;28;99121;-73
2021/12/24 08:45:59;;;;;;;1.70;1.60;;;;;;;10.31;65.01;99349.38;4927643;28;96908;-73
2021/12/24 08:48:27;;;;;;;2.00;1.60;;;;;;;10.42;64.69;99347.03;4915662;28;96895;-74
2021/12/24 08:50:54;;;;;;;1.88;1.45;;;;;;;10.46;65.07;99343.25;4914821;28;97289;-72
2021/12/24 08:53:21;;;;;;;1.45;1.30;;;;;;;10.25;65.33;99345.31;4920630;28;98084;-72
2021/12/24 08:55:47;;;;;;;1.50;1.25;;;;;;;10.58;64.19;99339.06;4924272;28;96725;-73
2021/12/24 08:58:14;;;;;;;1.73;1.30;;;;;;;10.61;63.92;99326.53;4917375;28;96932;-72
2021/12/24 09:00:40;;;;;;;1.40;1.30;;;;;;;10.48;64.47;99335.25;4919814;28;98432;-73
2021/12/24 09:03:07;;;;;;;1.25;1.15;;;;;;;10.56;64.93;99335.66;4912664;28;99090;-73
2021/12/24 09:05:35;;;;;;;1.50;1.30;;;;;;;10.72;63.97;99334.69;4918681;28;96806;-72
2021/12/24 09:08:01;;;;;;;2.00;1.40;;;;;;;10.82;63.68;99337.66;4920590;28;97384;-72
2021/12/24 09:10:28;;;;;;;1.55;1.45;;;;;;;10.50;64.32;99339.47;4914634;28;99392;-73
2021/12/24 09:12:55;;;;;;;1.63;1.13;;;;;;;10.44;63.82;99326.63;4912729;28;98917;-71
2021/12/24 09:15:22;;;;;;;3.53;1.60;;;;;;;10.43;63.54;99334.66;4922381;28;96922;-72
2021/12/24 09:17:48;;;;;;;2.53;1.55;;;;;;;10.62;64.82;99325.59;4923790;28;96621;-73
2021/12/24 09:20:18;;;;;;;1.60;1.42;;;;;;;10.28;64.33;99321.41;4928247;28;98167;-74
2021/12/24 09:22:48;;;;;;;1.58;1.48;;;;;;;10.83;63.67;99325.28;4928728;28;98961;-74
2021/12/24 09:25:14;;;;;;;1.17;1.08;;;;;;;10.72;62.45;99332.03;4929655;28;96715;-73
2021/12/24 09:27:41;;;;;;;1.60;1.15;;;;;;;10.42;64.89;99341.75;4936534;28;97575;-73
2021/12/24 20:16:13;;;;;;;;;;;;;;;;;;;;;
2021/12/24 20:38:07;;;;;;;;;;;;;;;;;;;;;
2021/12/24 20:51:54;;;;;;;;;;;;;;;;;;;;;
2021/12/24 21:17:23;;;;;;;;;;;;;;;;;;;;;
2021/12/24 21:20:42;;;;;;;;;;;;;;;;;;;;;
2021/12/24 21:33:07;;;;;;;1.25;0.47;;;;;;;1.97;43.71;100399.34;4957299;22;100228;-74
2021/12/24 21:35:34;;;;;;;2.15;0.40;;;;;;;1.81;42.77;100404.66;4956431;28;96692;-73
2021/12/24 21:38:01;;;;;;;2.63;0.50;;;;;;;1.34;43.37;100404.88;4965431;28;98316;-74
2021/12/24 21:40:30;;;;;;;2.58;0.60;;;;;;;1.64;43.06;100409.97;4955757;28;99122;-74
2021/12/24 21:42:57;;;;;;;1.52;0.47;;;;;;;1.54;42.80;100418.69;4936587;28;98198;-74
2021/12/24 21:45:28;;;;;;;1.65;0.50;;;;;;;1.07;43.88;100424.03;4935008;28;96703;-74
2021/12/24 21:47:55;;;;;;;1.00;0.40;;;;;;;1.71;42.34;100429.06;4936546;28;96780;-72
2021/12/24 21:50:30;;;;;;;1.58;0.50;;;;;;;1.76;42.89;100438.56;4931588;28;98110;-73
2021/12/24 21:52:57;;;;;;;3.35;0.40;;;;;;;1.37;42.68;100444.81;4937238;28;98236;-73
2021/12/24 21:55:26;;;;;;;1.08;0.40;;;;;;;1.89;42.30;100442.84;4940765;28;96724;-73
2021/12/24 21:57:53;;;;;;;1.42;0.47;;;;;;;1.95;41.97;100448.03;4944949;28;96769;-74
2021/12/24 22:00:22;;;;;;;2.33;0.47;;;;;;;1.97;42.17;100459.28;4941412;28;99081;-75
2021/12/24 22:03:07;;;;;;;2.58;0.40;;;;;;;2.10;41.85;100469.66;4939076;28;99341;-73
2021/12/24 22:05:55;;;;;;;0.57;0.40;;;;;;;1.91;41.85;100477.56;4938020;28;96735;-73
2021/12/24 22:08:24;;;;;;;2.88;0.75;;;;;;;2.17;41.47;100480.03;4945742;28;96772;-73
2021/12/24 22:10:53;;;;;;;1.80;0.68;;;;;;;2.20;41.26;100489.59;4939746;28;99013;-73
2021/12/24 22:13:20;;;;;;;1.25;0.40;;;;;;;2.15;39.91;100488.75;4942142;28;99199;-74
2021/12/24 22:15:47;;;;;;;2.00;0.30;;;;;;;2.21;41.05;100488.72;4950225;28;96672;-74
2021/12/24 22:18:13;;;;;;;3.15;0.45;;;;;;;2.18;41.04;100486.09;4946253;28;97132;-73
2021/12/24 22:20:41;;;;;;;1.85;0.60;;;;;;;2.22;40.52;100488.72;4950315;28;99017;-74
2021/12/24 22:23:08;;;;;;;2.33;0.40;;;;;;;2.37;40.70;100492.94;4933266;28;99320;-75
2021/12/24 22:25:34;;;;;;;1.25;0.43;;;;;;;2.09;40.34;100487.06;4948623;28;96805;-73
2021/12/24 22:28:01;;;;;;;2.78;0.40;;;;;;;1.32;41.66;100496.00;4933707;28;96826;-73
2021/12/24 22:30:27;;;;;;;1.42;0.30;;;;;;;1.15;41.31;100496.03;4934535;28;96758;-73
2021/12/24 22:32:54;;;;;;;1.75;0.45;;;;;;;1.20;42.44;100491.69;4945286;28;98676;-74
2021/12/24 22:35:22;;;;;;;3.03;0.55;;;;;;;1.41;42.54;100492.50;4942988;28;96732;-74
2021/12/24 22:37:50;;;;;;;1.63;0.80;;;;;;;1.64;42.22;100493.31;4939812;28;97172;-73
2021/12/24 22:40:17;;;;;;;0.90;0.50;;;;;;;1.88;41.93;100495.81;4940307;28;99328;-74
2021/12/24 22:42:44;;;;;;;0.77;0.50;;;;;;;2.06;41.85;100499.22;4932482;28;98857;-74
2021/12/24 22:45:11;;;;;;;1.27;0.30;;;;;;;1.25;41.63;100511.66;4935109;28;96828;-74
2021/12/24 22:47:37;;;;;;;2.47;0.40;;;;;;;1.31;42.35;100512.50;4943482;28;96763;-73
2021/12/24 22:50:06;;;;;;;2.40;0.30;;;;;;;1.08;43.21;100515.13;4943097;28;99573;-72
2021/12/24 22:52:40;;;;;;;1.55;0.70;;;;;;;0.83;44.12;100509.94;4934808;28;99381;-74
2021/12/24 22:55:12;;;;;;;2.72;0.63;;;;;;;1.48;43.15;100515.94;4941918;28;96894;-73
2021/12/24 22:57:39;;;;;;;3.30;0.57;;;;;;;1.87;43.24;100517.53;4941648;28;97549;-73
2021/12/24 23:00:09;;;;;;;1.88;0.40;;;;;;;2.17;42.42;100515.66;4943438;28;98839;-73
2021/12/24 23:02:36;;;;;;;4.32;0.60;;;;;;;1.47;42.97;100526.34;4950957;28;102153;-72
2021/12/24 23:05:02;;;;;;;3.78;0.80;;;;;;;1.90;42.97;100517.50;4937206;28;96620;-75
2021/12/24 23:07:29;;;;;;;2.10;0.43;;;;;;;1.21;43.87;100526.38;4950334;28;96784;-72
2021/12/24 23:09:55;;;;;;;2.08;0.63;;;;;;;1.24;44.71;100517.72;4918369;28;99340;-72
2021/12/24 23:12:23;;;;;;;2.95;0.60;;;;;;;1.34;44.12;100529.84;4945808;28;98887;-75
2021/12/24 23:14:49;;;;;;;3.20;0.50;;;;;;;1.16;43.36;100528.13;4943603;28;96813;-74
2021/12/24 23:17:24;;;;;;;6.93;1.13;;;;;;;1.07;43.97;100541.13;4945787;28;96840;-73
2021/12/24 23:19:50;;;;;;;4.50;1.30;;;;;;;1.08;43.31;100548.94;4946687;28;99726;-73
2021/12/24 23:22:17;;;;;;;1.58;0.38;;;;;;;1.23;44.07;100539.41;4943045;28;98935;-74
2021/12/24 23:24:43;;;;;;;2.55;0.40;;;;;;;1.10;43.90;100542.03;4938349;28;96696;-75
2021/12/24 23:27:09;;;;;;;1.83;0.70;;;;;;;1.47;43.86;100544.56;4946567;28;97013;-75
2021/12/24 23:29:37;;;;;;;3.03;0.70;;;;;;;1.75;43.21;100543.63;4943095;28;101931;-73
2021/12/24 23:32:04;;;;;;;1.42;0.50;;;;;;;2.06;43.00;100552.22;4936466;28;99148;-73
2021/12/24 23:34:30;;;;;;;2.53;0.70;;;;;;;2.10;41.19;100566.13;4947056;28;96658;-73
2021/12/24 23:36:57;;;;;;;3.63;0.95;;;;;;;2.31;42.03;100563.38;4927765;28;98353;-73
2021/12/24 23:39:23;;;;;;;3.00;0.60;;;;;;;1.99;41.54;100568.75;4938321;28;98947;-74
2021/12/24 23:41:50;;;;;;;3.40;0.70;;;;;;;1.94;42.46;100571.38;4937636;28;98826;-73
2021/12/24 23:44:16;;;;;;;4.18;1.13;;;;;;;1.91;42.33;100576.56;4944736;28;97321;-73
2021/12/24 23:47:02;;;;;;;3.78;0.60;;;;;;;2.27;41.55;100574.72;4929634;28;96789;-73
2021/12/24 23:49:28;;;;;;;4.72;0.60;;;;;;;2.09;42.96;100591.31;4941363;28;99385;-74
2021/12/24 23:51:55;;;;;;;5.03;0.80;;;;;;;2.35;41.87;100586.84;4927023;28;98841;-75
2021/12/24 23:54:22;;;;;;;5.72;0.50;;;;;;;2.42;40.92;100592.91;4950177;28;96776;-72
2021/12/24 23:56:49;;;;;;;2.83;0.43;;;;;;;2.05;41.68;100600.00;4939792;28;97030;-73
2021/12/24 23:59:18;;;;;;;5.95;1.00;;;;;;;2.11;42.10;100601.69;4936315;28;98986;-75
